createdAt,value
2023-03-31T00:01:17.254Z,1.30
2023-03-31T00:06:22.156Z,1.42
2023-03-31T00:11:25.495Z,1.45
2023-03-31T00:16:29.156Z,1.23
2023-03-31T00:21:37.551Z,1.30
2023-03-31T00:26:41.872Z,0.90
2023-03-31T00:31:45.836Z,1.80
2023-03-31T00:36:50.582Z,1.77
2023-03-31T00:41:53.894Z,1.55
2023-03-31T00:47:01.505Z,1.58
2023-03-31T00:52:11.103Z,1.88
2023-03-31T00:57:16.153Z,1.52
2023-03-31T01:02:21.076Z,1.27
2023-03-31T01:07:31.099Z,1.98
2023-03-31T01:12:38.071Z,1.38
2023-03-31T01:17:45.050Z,1.27
2023-03-31T01:23:35.152Z,1.30
2023-03-31T01:28:44.207Z,1.20
2023-03-31T01:34:29.751Z,1.67
2023-03-31T01:40:00.691Z,1.90
2023-03-31T01:45:14.011Z,1.70
2023-03-31T01:50:23.736Z,1.55
2023-03-31T01:55:35.848Z,1.40
2023-03-31T02:00:43.230Z,1.80
2023-03-31T02:05:51.494Z,1.73
2023-03-31T02:10:58.656Z,1.70
2023-03-31T02:16:12.955Z,1.88
2023-03-31T02:21:23.965Z,2.25
2023-03-31T02:26:32.402Z,1.80
2023-03-31T02:31:42.832Z,1.35
2023-03-31T02:36:46.828Z,1.55
2023-03-31T02:41:51.591Z,2.08
2023-03-31T02:46:55.594Z,1.83
2023-03-31T02:52:29.143Z,1.77
2023-03-31T02:58:04.478Z,1.83
2023-03-31T03:03:25.660Z,3.33
2023-03-31T03:08:39.788Z,2.83
2023-03-31T03:13:48.899Z,1.65
2023-03-31T03:18:59.187Z,1.88
2023-03-31T03:24:02.740Z,1.67
2023-03-31T03:29:07.738Z,2.20
2023-03-31T03:34:11.320Z,3.60
2023-03-31T03:39:15.138Z,2.30
2023-03-31T03:44:19.888Z,2.35
2023-03-31T03:49:23.468Z,2.13
2023-03-31T03:54:28.360Z,1.88
2023-03-31T03:59:32.862Z,2.50
2023-03-31T04:04:36.131Z,3.40
2023-03-31T04:09:39.438Z,2.40
2023-03-31T04:14:44.126Z,3.10
2023-03-31T04:19:52.277Z,2.30
2023-03-31T04:24:58.727Z,2.28
2023-03-31T04:30:05.246Z,2.38
2023-03-31T04:35:09.196Z,2.90
2023-03-31T04:40:14.547Z,2.38
2023-03-31T04:45:19.660Z,2.85
2023-03-31T04:50:22.931Z,3.05
2023-03-31T04:55:28.114Z,2.25
2023-03-31T05:00:32.850Z,2.88
2023-03-31T05:05:36.313Z,2.45
2023-03-31T05:10:39.670Z,2.50
2023-03-31T05:15:46.150Z,3.42
2023-03-31T05:20:49.504Z,2.65
2023-03-31T05:25:52.827Z,2.80
2023-03-31T05:31:03.880Z,3.20
2023-03-31T05:36:10.152Z,3.33
2023-03-31T05:41:13.775Z,3.08
2023-03-31T05:46:18.956Z,2.95
2023-03-31T05:51:24.123Z,3.33
2023-03-31T05:56:29.503Z,3.25
2023-03-31T06:01:34.385Z,3.08
2023-03-31T06:06:38.706Z,2.65
2023-03-31T06:11:41.953Z,2.90
2023-03-31T06:16:51.498Z,2.60
2023-03-31T06:21:54.865Z,2.65
2023-03-31T06:26:58.842Z,3.08
2023-03-31T06:32:05.352Z,2.88
2023-03-31T06:37:08.691Z,3.20
2023-03-31T06:42:12.012Z,2.80
2023-03-31T06:47:17.241Z,3.25
2023-03-31T06:52:20.624Z,3.17
2023-03-31T06:57:27.481Z,3.25
2023-03-31T07:02:33.847Z,3.00
2023-03-31T07:07:38.448Z,2.72
2023-03-31T07:18:12.590Z,2.03
2023-03-31T07:23:16.311Z,1.40
2023-03-31T07:28:19.601Z,1.58
2023-03-31T07:33:24.508Z,1.17
2023-03-31T07:38:27.805Z,1.60
2023-03-31T07:43:31.177Z,1.25
2023-03-31T07:48:36.087Z,0.80
2023-03-31T07:53:41.562Z,1.23
2023-03-31T07:58:46.425Z,0.65
2023-03-31T08:03:54.309Z,0.50
2023-03-31T08:08:59.728Z,0.40
2023-03-31T08:14:04.557Z,0.55
2023-03-31T08:19:14.053Z,0.30
2023-03-31T08:24:17.337Z,0.30
2023-03-31T08:29:20.698Z,0.30
2023-03-31T08:34:25.845Z,0.28
2023-03-31T08:39:29.215Z,0.50
2023-03-31T08:44:36.824Z,0.30
2023-03-31T08:49:47.354Z,0.50
2023-03-31T08:54:53.721Z,0.40
2023-03-31T08:59:58.941Z,0.20
2023-03-31T09:05:32.006Z,0.30
2023-03-31T09:10:42.889Z,0.32
2023-03-31T09:15:55.083Z,0.50
2023-03-31T09:21:09.639Z,0.50
2023-03-31T09:31:48.642Z,0.50
2023-03-31T09:36:53.870Z,0.40
2023-03-31T09:42:06.712Z,0.52
2023-03-31T09:52:49.113Z,0.50
2023-03-31T09:57:53.181Z,0.60
2023-03-31T10:03:01.764Z,0.80
2023-03-31T10:08:26.684Z,0.82
2023-03-31T10:13:36.970Z,0.85
2023-03-31T10:18:42.787Z,1.02
2023-03-31T10:23:51.803Z,1.02
2023-03-31T10:28:56.031Z,0.82
2023-03-31T10:34:06.402Z,0.75
2023-03-31T10:39:21.150Z,0.98
2023-03-31T10:44:38.601Z,0.90
2023-03-31T10:49:45.518Z,0.80
2023-03-31T10:54:59.785Z,1.00
2023-03-31T11:00:19.793Z,0.77
2023-03-31T11:05:30.289Z,0.80
2023-03-31T11:10:55.140Z,0.73
2023-03-31T11:16:05.379Z,0.80
2023-03-31T11:21:23.035Z,1.08
2023-03-31T11:26:38.545Z,0.80
2023-03-31T11:31:50.876Z,0.40
2023-03-31T11:37:16.782Z,0.43
2023-03-31T11:42:28.570Z,0.47
2023-03-31T11:47:35.083Z,0.80
2023-03-31T11:52:48.282Z,0.35
2023-03-31T11:58:02.803Z,0.20
2023-03-31T12:03:12.554Z,0.40
2023-03-31T12:08:23.664Z,0.38
2023-03-31T12:13:45.859Z,0.30
2023-03-31T12:19:03.160Z,0.25
2023-03-31T12:24:08.386Z,0.40
2023-03-31T12:29:36.529Z,0.30
2023-03-31T12:35:02.586Z,0.50
2023-03-31T12:40:17.582Z,0.60
2023-03-31T12:45:29.207Z,0.63
2023-03-31T12:50:47.197Z,0.40
2023-03-31T12:55:53.890Z,0.50
2023-03-31T13:01:16.231Z,0.35
2023-03-31T13:06:49.597Z,0.52
2023-03-31T13:11:53.052Z,0.75
2023-03-31T13:17:14.855Z,0.38
2023-03-31T13:22:36.241Z,0.65
2023-03-31T13:27:49.352Z,0.70
2023-03-31T13:33:09.175Z,0.75
2023-03-31T13:38:23.558Z,0.88
2023-03-31T13:43:57.389Z,0.70
2023-03-31T13:49:12.366Z,0.85
2023-03-31T13:54:53.924Z,0.88
2023-03-31T14:00:19.887Z,0.63
2023-03-31T14:05:43.706Z,0.60
2023-03-31T14:10:47.229Z,0.50
2023-03-31T14:15:55.004Z,0.40
2023-03-31T14:21:20.678Z,0.73
2023-03-31T14:26:42.445Z,0.38
2023-03-31T14:31:54.863Z,0.50
2023-03-31T14:37:03.362Z,0.50
2023-03-31T14:42:12.158Z,0.45
2023-03-31T14:47:17.306Z,0.60
2023-03-31T14:52:24.511Z,0.70
2023-03-31T14:57:32.838Z,0.22
2023-03-31T15:02:38.948Z,0.35
2023-03-31T15:07:45.001Z,0.30
2023-03-31T15:12:49.371Z,0.60
2023-03-31T15:17:53.130Z,0.30
2023-03-31T15:22:59.517Z,0.30
2023-03-31T15:28:07.427Z,0.50
2023-03-31T15:33:21.322Z,0.40
2023-03-31T15:38:30.731Z,0.40
2023-03-31T15:43:47.333Z,0.40
2023-03-31T15:48:53.186Z,0.32
2023-03-31T15:53:59.016Z,0.43
2023-03-31T15:59:04.473Z,0.40
2023-03-31T16:04:12.396Z,0.43
2023-03-31T16:09:23.408Z,0.47
2023-03-31T16:14:32.604Z,0.47
2023-03-31T16:19:42.755Z,0.40
2023-03-31T16:24:47.827Z,0.47
2023-03-31T16:29:51.996Z,0.30
2023-03-31T16:35:00.096Z,0.60
2023-03-31T16:40:06.213Z,0.60
2023-03-31T16:45:14.825Z,0.45
2023-03-31T16:50:22.905Z,0.50
2023-03-31T16:55:27.562Z,0.50
2023-03-31T17:00:32.144Z,0.70
2023-03-31T17:05:39.901Z,0.47
2023-03-31T17:10:53.529Z,0.55
2023-03-31T17:16:13.164Z,1.17
2023-03-31T17:21:20.932Z,0.60
2023-03-31T17:26:27.510Z,0.30
2023-03-31T17:31:32.053Z,0.60
2023-03-31T17:36:35.476Z,0.90
2023-03-31T17:41:40.123Z,0.60
2023-03-31T17:46:43.454Z,0.70
2023-03-31T17:51:48.635Z,1.13
2023-03-31T17:56:53.382Z,0.80
2023-03-31T18:01:56.988Z,1.00
2023-03-31T18:07:00.498Z,0.60
2023-03-31T18:12:05.701Z,0.50
2023-03-31T18:17:11.822Z,0.73
2023-03-31T18:22:15.987Z,0.95
2023-03-31T18:27:21.692Z,1.02
2023-03-31T18:32:26.581Z,1.27
2023-03-31T18:37:31.828Z,0.70
2023-03-31T18:42:37.030Z,0.82
2023-03-31T18:47:40.437Z,1.00
2023-03-31T18:52:43.870Z,0.60
2023-03-31T18:57:48.520Z,0.90
2023-03-31T19:02:52.151Z,0.40
2023-03-31T19:07:56.458Z,0.55
2023-03-31T19:13:01.387Z,0.70
2023-03-31T19:18:04.813Z,0.45
2023-03-31T19:23:08.084Z,0.95
2023-03-31T19:28:20.327Z,0.65
2023-03-31T19:33:23.929Z,1.13
2023-03-31T19:38:33.323Z,0.70
2023-03-31T19:43:38.379Z,0.90
2023-03-31T19:48:41.573Z,1.02
2023-03-31T19:53:44.861Z,0.70
2023-03-31T19:58:50.395Z,0.82
2023-03-31T20:03:54.780Z,1.00
2023-03-31T20:09:00.011Z,0.75
2023-03-31T20:14:05.316Z,1.25
2023-03-31T20:19:11.516Z,0.88
2023-03-31T20:24:17.616Z,1.10
2023-03-31T20:29:22.745Z,1.38
2023-03-31T20:34:27.627Z,1.10
2023-03-31T20:39:31.289Z,0.70
2023-03-31T20:44:36.240Z,0.75
2023-03-31T20:49:39.589Z,0.98
2023-03-31T20:54:43.898Z,0.85
2023-03-31T20:59:48.440Z,0.88
2023-03-31T21:04:52.638Z,0.85
2023-03-31T21:09:56.096Z,0.95
2023-03-31T21:15:00.808Z,1.05
2023-03-31T21:20:04.514Z,1.05
2023-03-31T21:25:09.038Z,0.80
2023-03-31T21:30:17.100Z,1.13
2023-03-31T21:35:20.296Z,1.05
2023-03-31T21:40:24.591Z,0.70
2023-03-31T21:45:29.397Z,0.70
2023-03-31T21:50:34.606Z,0.57
2023-03-31T21:55:39.568Z,0.50
2023-03-31T22:00:44.216Z,0.80
2023-03-31T22:05:47.527Z,0.50
2023-03-31T22:10:52.021Z,0.60
2023-03-31T22:15:57.103Z,0.43
2023-03-31T22:21:01.030Z,0.55
2023-03-31T22:26:05.514Z,0.30
2023-03-31T22:31:10.628Z,0.50
2023-03-31T22:36:14.077Z,0.80
2023-03-31T22:41:17.427Z,0.60
2023-03-31T22:46:22.367Z,0.50
2023-03-31T22:51:25.804Z,0.52
2023-03-31T22:56:29.472Z,0.50
2023-03-31T23:01:34.091Z,0.80
2023-03-31T23:06:37.521Z,0.77
2023-03-31T23:11:40.903Z,0.45
2023-03-31T23:16:45.749Z,0.95
2023-03-31T23:21:49.583Z,0.60
2023-03-31T23:26:53.548Z,0.63
2023-03-31T23:31:58.339Z,0.85
2023-03-31T23:37:01.839Z,0.68
2023-03-31T23:42:05.382Z,0.50
2023-03-31T23:47:09.995Z,0.90
2023-03-31T23:52:14.230Z,0.50
2023-03-31T23:57:17.793Z,0.80
